Time;durP1;ratioP1;P1;durP2;ratioP2;P2;SDS_P1;SDS_P2;PMS_P1;PMS_P2;Temp;Humidity;BMP_temperature;BMP_pressure;BME280_temperature;BME280_humidity;BME280_pressure;Samples;Min_cycle;Max_cycle;Signal;HPM_P1;HPM_P2
2022/03/18 00:02:24;;;;;;;13.77;2.72;;;7.80;99.90;;;;;;6255264;22;20042;-91
2022/03/18 00:04:52;;;;;;;9.68;1.42;;;7.70;99.90;;;;;;6277554;22;20020;-92
2022/03/18 00:07:21;;;;;;;6.47;1.50;;;7.70;99.90;;;;;;6252067;22;20077;-92
2022/03/18 00:09:48;;;;;;;5.50;1.30;;;7.70;99.90;;;;;;6252446;22;20069;-91
2022/03/18 00:12:16;;;;;;;7.40;1.67;;;7.70;99.90;;;;;;6277674;22;20016;-91
2022/03/18 00:14:44;;;;;;;3.78;1.38;;;7.80;99.90;;;;;;6279490;22;20026;-93
2022/03/18 00:17:11;;;;;;;9.70;1.58;;;7.80;99.90;;;;;;6277237;22;20020;-92
2022/03/18 00:19:39;;;;;;;5.45;1.13;;;7.70;99.90;;;;;;6227021;22;20016;-92
2022/03/18 00:22:07;;;;;;;4.22;1.23;;;7.70;99.90;;;;;;6251765;22;20026;-92
2022/03/18 00:24:34;;;;;;;3.53;1.10;;;7.70;99.90;;;;;;6226402;22;20023;-92
2022/03/18 00:27:03;;;;;;;2.50;1.58;;;7.70;99.90;;;;;;6251882;22;20016;-93
2022/03/18 00:29:34;;;;;;;12.23;1.88;;;7.70;99.90;;;;;;6226962;22;20016;-91
2022/03/18 00:32:04;;;;;;;8.65;1.23;;;7.70;99.90;;;;;;6226540;22;20019;-92
2022/03/18 00:34:33;;;;;;;3.38;1.42;;;7.70;99.90;;;;;;6252780;22;20070;-92
2022/03/18 00:37:01;;;;;;;4.55;1.48;;;7.70;99.90;;;;;;6276656;22;20024;-91
2022/03/18 00:39:29;;;;;;;3.17;1.35;;;7.70;99.90;;;;;;6251371;22;20374;-91
2022/03/18 00:41:56;;;;;;;3.95;1.38;;;7.70;99.90;;;;;;6251413;22;20069;-91
2022/03/18 00:44:25;;;;;;;5.63;0.70;;;7.80;99.90;;;;;;6276609;22;20019;-92
2022/03/18 00:46:53;;;;;;;4.88;1.35;;;7.70;99.90;;;;;;6251677;22;20012;-93
2022/03/18 00:52:07;;;;;;;7.18;1.08;;;7.70;99.90;;;;;;6276323;22;20020;-91
2022/03/18 00:54:36;;;;;;;3.85;1.17;;;7.70;99.90;;;;;;6278412;22;20015;-92
2022/03/18 00:57:04;;;;;;;1.83;0.90;;;7.80;99.90;;;;;;6251594;22;20431;-93
2022/03/18 00:59:31;;;;;;;6.43;1.70;;;7.70;99.90;;;;;;6251036;22;20065;-94
2022/03/18 01:01:59;;;;;;;4.20;1.20;;;7.70;99.90;;;;;;6275937;22;20459;-94
2022/03/18 01:04:28;;;;;;;6.30;1.48;;;7.70;99.90;;;;;;6251930;22;20443;-94
2022/03/18 01:06:57;;;;;;;4.97;1.05;;;7.70;99.90;;;;;;6277008;22;20023;-91
2022/03/18 01:09:25;;;;;;;6.15;1.90;;;7.60;99.90;;;;;;6276633;22;20081;-93
2022/03/18 01:11:54;;;;;;;2.80;0.88;;;7.60;99.90;;;;;;6251595;22;20020;-93
2022/03/18 01:14:22;;;;;;;3.75;2.15;;;7.60;99.90;;;;;;6226061;22;20061;-93
2022/03/18 01:16:49;;;;;;;9.68;1.40;;;7.60;99.90;;;;;;6276119;22;20019;-92
2022/03/18 01:19:18;;;;;;;5.40;1.27;;;7.60;99.90;;;;;;6277975;22;20020;-92
2022/03/18 01:21:45;;;;;;;6.35;1.20;;;7.60;99.90;;;;;;6276311;22;20358;-91
2022/03/18 01:24:12;;;;;;;1.38;0.80;;;7.60;99.90;;;;;;6250120;22;20026;-91
2022/03/18 01:26:40;;;;;;;5.60;1.05;;;7.50;99.90;;;;;;6276707;22;20027;-92
2022/03/18 01:29:08;;;;;;;5.30;1.13;;;7.50;99.90;;;;;;6275984;22;20012;-92
2022/03/18 01:31:35;;;;;;;3.92;1.75;;;7.50;99.90;;;;;;6250565;22;20324;-92
2022/03/18 01:34:03;;;;;;;6.93;1.40;;;7.50;99.90;;;;;;6275824;22;20020;-92
2022/03/18 01:36:30;;;;;;;8.18;1.52;;;7.50;99.90;;;;;;6251269;22;20020;-93
2022/03/18 01:38:57;;;;;;;8.88;1.92;;;7.40;99.90;;;;;;6251415;22;20028;-93
2022/03/18 01:41:24;;;;;;;4.78;1.75;;;7.40;99.90;;;;;;6275962;22;20051;-91
2022/03/18 01:43:51;;;;;;;3.28;1.52;;;7.40;99.90;;;;;;6248980;22;20074;-93
2022/03/18 01:46:19;;;;;;;7.72;1.30;;;7.40;99.90;;;;;;6277905;22;20069;-93
2022/03/18 01:48:47;;;;;;;3.58;0.82;;;7.40;99.90;;;;;;6276180;22;20015;-91
2022/03/18 01:51:17;;;;;;;4.60;1.40;;;7.40;99.90;;;;;;6251163;22;20023;-92
2022/03/18 01:53:45;;;;;;;11.25;1.30;;;7.40;99.90;;;;;;6275957;22;20020;-92
2022/03/18 01:56:12;;;;;;;5.22;1.45;;;7.40;99.90;;;;;;6225210;22;20443;-93
2022/03/18 01:58:40;;;;;;;5.43;1.52;;;7.40;99.90;;;;;;6275897;22;20292;-92
2022/03/18 02:01:08;;;;;;;3.85;2.17;;;7.40;99.90;;;;;;6250657;22;20484;-92
2022/03/18 02:03:36;;;;;;;4.85;1.40;;;7.30;99.90;;;;;;6276454;22;20111;-93
2022/03/18 02:06:03;;;;;;;6.22;1.65;;;7.40;99.90;;;;;;6276171;22;20094;-93
2022/03/18 02:08:33;;;;;;;10.00;1.60;;;7.30;99.90;;;;;;6275751;22;20035;-92
2022/03/18 02:11:00;;;;;;;5.95;2.10;;;7.30;99.90;;;;;;6276749;22;20070;-93
2022/03/18 02:13:30;;;;;;;10.80;2.03;;;7.30;99.90;;;;;;6275322;22;20023;-92
2022/03/18 02:16:02;;;;;;;8.07;1.80;;;7.20;99.90;;;;;;6250316;22;20319;-93
2022/03/18 02:18:30;;;;;;;7.43;1.90;;;7.20;99.90;;;;;;6277805;22;20026;-92
2022/03/18 02:20:56;;;;;;;4.93;1.90;;;7.10;99.90;;;;;;6251198;22;20256;-91
2022/03/18 02:23:24;;;;;;;5.97;1.80;;;7.10;99.90;;;;;;6276227;22;20023;-92
2022/03/18 02:25:51;;;;;;;4.22;1.35;;;7.10;99.90;;;;;;6276368;22;20016;-91
2022/03/18 02:28:21;;;;;;;13.15;2.58;;;7.20;99.90;;;;;;6276605;22;20016;-92
2022/03/18 02:30:51;;;;;;;9.88;2.72;;;7.20;99.90;;;;;;6251653;22;20012;-91
2022/03/18 02:33:21;;;;;;;13.70;2.45;;;7.10;99.90;;;;;;6250920;22;20031;-92
2022/03/18 02:35:53;;;;;;;9.95;2.10;;;7.20;99.90;;;;;;6276185;22;20118;-93
2022/03/18 02:38:21;;;;;;;5.80;1.45;;;7.10;99.90;;;;;;6250240;22;20030;-91
2022/03/18 02:40:48;;;;;;;8.10;1.88;;;7.10;99.90;;;;;;6276319;22;20016;-93
2022/03/18 02:43:15;;;;;;;5.05;1.45;;;7.10;99.90;;;;;;6275697;22;20046;-93
2022/03/18 02:45:42;;;;;;;4.82;1.85;;;7.10;99.90;;;;;;6275713;22;20027;-93
2022/03/18 02:48:10;;;;;;;8.52;1.63;;;7.10;99.90;;;;;;6250111;22;20027;-91
2022/03/18 02:50:37;;;;;;;5.30;1.27;;;7.10;99.90;;;;;;6250090;22;20378;-92
2022/03/18 02:53:04;;;;;;;10.77;2.05;;;7.10;99.90;;;;;;6249735;22;20106;-93
2022/03/18 02:55:33;;;;;;;8.70;1.40;;;7.10;99.90;;;;;;6275885;22;20102;-91
2022/03/18 02:58:00;;;;;;;4.00;1.23;;;7.10;99.90;;;;;;6276054;22;20016;-91
2022/03/18 03:00:27;;;;;;;9.40;1.02;;;7.10;99.90;;;;;;6250453;22;20028;-93
2022/03/18 03:02:54;;;;;;;5.47;1.52;;;7.10;99.90;;;;;;6275773;22;20026;-92
2022/03/18 03:08:08;;;;;;;6.63;1.25;;;7.00;99.90;;;;;;6250060;22;20325;-92
2022/03/18 03:10:36;;;;;;;6.35;0.95;;;7.00;99.90;;;;;;6250509;22;20288;-93
2022/03/18 03:13:11;;;;;;;14.27;1.83;;;7.00;99.90;;;;;;6275100;22;20020;-93
2022/03/18 03:15:39;;;;;;;8.30;1.52;;;7.00;99.90;;;;;;6275526;22;20018;-92
2022/03/18 03:18:07;;;;;;;4.20;0.93;;;7.00;99.90;;;;;;6224528;22;20020;-93
2022/03/18 03:20:35;;;;;;;6.68;1.23;;;7.00;99.90;;;;;;6276400;22;20366;-92
2022/03/18 03:23:02;;;;;;;5.05;1.23;;;7.00;99.90;;;;;;6249844;22;20026;-91
2022/03/18 03:25:36;;;;;;;7.47;1.50;;;7.00;99.90;;;;;;6277552;22;20016;-92
2022/03/18 03:28:11;;;;;;;5.57;0.93;;;7.00;99.90;;;;;;6250036;22;20015;-92
2022/03/18 03:30:52;;;;;;;5.60;1.27;;;7.00;99.90;;;;;;6253296;22;20023;-93
2022/03/18 03:33:19;;;;;;;3.13;1.10;;;7.00;99.90;;;;;;6251773;22;20015;-92
2022/03/18 03:35:54;;;;;;;1.73;0.88;;;7.00;99.90;;;;;;6228094;22;20020;-93
2022/03/18 03:38:25;;;;;;;8.60;1.00;;;7.00;99.90;;;;;;6276513;22;20026;-93
2022/03/18 03:40:52;;;;;;;5.00;1.33;;;7.00;99.90;;;;;;6227102;22;20457;-92
2022/03/18 03:43:25;;;;;;;5.32;0.80;;;7.00;99.90;;;;;;6251722;22;20023;-92
2022/03/18 03:46:01;;;;;;;2.08;0.90;;;6.90;99.90;;;;;;6276319;22;20094;-92
2022/03/18 03:48:31;;;;;;;4.97;0.82;;;7.00;99.90;;;;;;6278751;22;20016;-92
2022/03/18 03:51:01;;;;;;;2.97;1.20;;;7.00;99.90;;;;;;6252029;22;20016;-92
2022/03/18 03:53:28;;;;;;;5.70;1.08;;;6.90;99.90;;;;;;6251099;22;20019;-92
2022/03/18 03:55:55;;;;;;;2.85;1.02;;;6.90;99.90;;;;;;6252199;22;20346;-92
2022/03/18 03:58:25;;;;;;;3.95;1.35;;;6.90;99.90;;;;;;6251567;22;20020;-92
2022/03/18 04:00:52;;;;;;;1.38;1.00;;;6.90;99.90;;;;;;6277209;22;20069;-91
2022/03/18 04:03:19;;;;;;;8.55;2.10;;;6.90;99.90;;;;;;6277128;22;20042;-92
2022/03/18 04:05:47;;;;;;;11.85;1.55;;;6.90;99.90;;;;;;6277458;22;20016;-92
2022/03/18 04:08:14;;;;;;;9.20;1.45;;;6.90;99.90;;;;;;6276987;22;20346;-91
2022/03/18 04:10:42;;;;;;;3.38;0.98;;;6.90;99.90;;;;;;6277098;22;20012;-91
2022/03/18 04:13:10;;;;;;;9.20;1.25;;;6.90;99.90;;;;;;6277493;22;20012;-91
2022/03/18 04:15:38;;;;;;;2.10;0.80;;;6.80;99.90;;;;;;6251697;22;20402;-91
2022/03/18 04:18:08;;;;;;;4.75;1.58;;;6.90;99.90;;;;;;6277526;22;20081;-92
2022/03/18 04:20:36;;;;;;;6.90;1.15;;;6.90;99.90;;;;;;6224417;22;20031;-92
2022/03/18 04:23:05;;;;;;;1.92;0.98;;;6.80;99.90;;;;;;6251582;22;20015;-91
2022/03/18 04:25:32;;;;;;;5.70;1.45;;;6.80;99.90;;;;;;6250548;22;20387;-91
2022/03/18 04:27:59;;;;;;;3.40;1.10;;;6.80;99.90;;;;;;6276850;22;20012;-91
2022/03/18 04:30:26;;;;;;;8.18;2.17;;;6.80;99.90;;;;;;6250956;22;20024;-92
2022/03/18 04:32:54;;;;;;;3.85;1.30;;;6.80;99.90;;;;;;6276368;22;20027;-91
2022/03/18 04:35:24;;;;;;;2.55;1.10;;;6.80;99.90;;;;;;6250746;22;20393;-91
2022/03/18 04:37:51;;;;;;;3.83;0.65;;;6.80;99.90;;;;;;6277072;22;20016;-91
2022/03/18 04:40:18;;;;;;;4.65;1.23;;;6.80;99.90;;;;;;6250731;22;20023;-91
2022/03/18 04:42:45;;;;;;;3.03;0.80;;;6.80;99.90;;;;;;6250838;22;20093;-92
2022/03/18 04:45:13;;;;;;;2.92;0.90;;;6.80;99.90;;;;;;6276687;22;20386;-91
2022/03/18 04:47:40;;;;;;;1.20;0.70;;;6.80;99.90;;;;;;6251093;22;20020;-93
2022/03/18 04:50:08;;;;;;;2.45;0.80;;;6.80;99.90;;;;;;6250696;22;20020;-92
2022/03/18 04:52:35;;;;;;;4.75;0.75;;;6.80;99.90;;;;;;6277137;22;20020;-91
2022/03/18 04:55:04;;;;;;;2.55;1.17;;;6.70;99.90;;;;;;6226048;22;20023;-91
2022/03/18 04:57:31;;;;;;;5.47;0.93;;;6.70;99.90;;;;;;6251022;22;20019;-92
2022/03/18 04:59:59;;;;;;;4.65;0.88;;;6.70;99.90;;;;;;6250696;22;20372;-92
2022/03/18 05:02:26;;;;;;;5.18;1.60;;;6.70;99.90;;;;;;6276323;22;20363;-92
2022/03/18 05:04:54;;;;;;;2.63;0.85;;;6.70;99.90;;;;;;6276313;22;20015;-92
2022/03/18 05:07:21;;;;;;;3.63;0.73;;;6.70;99.90;;;;;;6276720;22;20023;-92
2022/03/18 05:09:49;;;;;;;7.63;1.77;;;6.70;99.90;;;;;;6276263;22;20458;-91
2022/03/18 05:12:20;;;;;;;4.07;0.60;;;6.70;99.90;;;;;;6277961;22;20431;-92
2022/03/18 05:15:28;;;;;;;2.00;0.77;;;6.70;99.90;;;;;;6250500;22;20106;-91
2022/03/18 05:17:58;;;;;;;1.95;0.77;;;6.70;99.90;;;;;;6248725;22;20047;-92
2022/03/18 05:20:54;;;;;;;1.92;0.80;;;6.70;99.90;;;;;;6254892;22;20070;-93
2022/03/18 05:23:40;;;;;;;3.05;0.70;;;6.70;99.90;;;;;;6277671;22;20090;-92
2022/03/18 05:26:13;;;;;;;3.67;1.13;;;6.70;99.90;;;;;;6276104;22;20047;-91
2022/03/18 05:28:43;;;;;;;5.45;0.70;;;6.60;99.90;;;;;;6251023;22;20019;-92
2022/03/18 05:31:10;;;;;;;2.13;0.77;;;6.70;99.90;;;;;;6250211;22;20022;-91
2022/03/18 05:33:39;;;;;;;7.47;1.65;;;6.70;99.90;;;;;;6275664;22;20046;-92
2022/03/18 05:36:06;;;;;;;6.38;1.42;;;6.60;99.90;;;;;;6251164;22;20020;-92
2022/03/18 05:38:33;;;;;;;1.95;0.98;;;6.60;99.90;;;;;;6251559;22;20015;-92
2022/03/18 05:41:00;;;;;;;3.90;1.23;;;6.60;99.90;;;;;;6249859;22;20411;-91
2022/03/18 05:43:27;;;;;;;2.78;1.35;;;6.60;99.90;;;;;;6249213;22;20043;-91
2022/03/18 05:45:54;;;;;;;7.53;1.02;;;6.50;99.90;;;;;;6248453;22;20050;-92
2022/03/18 05:48:21;;;;;;;2.67;1.23;;;6.50;99.90;;;;;;6246403;22;20023;-92
2022/03/18 05:50:50;;;;;;;6.20;1.50;;;6.50;99.90;;;;;;6247656;22;20099;-91
2022/03/18 05:53:19;;;;;;;5.05;2.00;;;6.50;99.90;;;;;;6275876;22;20020;-92
2022/03/18 05:58:32;;;;;;;10.98;1.98;;;6.50;99.90;;;;;;6276153;22;20069;-92
2022/03/18 06:00:59;;;;;;;4.50;1.90;;;6.50;99.90;;;;;;6249963;22;20024;-91
2022/03/18 06:03:27;;;;;;;4.35;1.20;;;6.50;99.90;;;;;;6249856;22;20107;-92
2022/03/18 06:05:54;;;;;;;2.47;1.00;;;6.50;99.90;;;;;;6249858;22;20015;-93
2022/03/18 06:13:52;;;;;;;2.13;1.38;;;6.40;99.90;;;;;;6250462;22;20027;-91
2022/03/18 06:16:19;;;;;;;3.13;1.48;;;6.40;99.90;;;;;;6275116;22;20406;-92
2022/03/18 06:18:46;;;;;;;2.97;1.30;;;6.40;99.90;;;;;;6249812;22;20020;-92
2022/03/18 06:21:15;;;;;;;4.32;1.30;;;6.40;99.90;;;;;;6249796;22;20043;-93
2022/03/18 06:23:42;;;;;;;6.40;2.05;;;6.40;99.90;;;;;;6249923;22;20106;-91
2022/03/18 06:26:10;;;;;;;4.00;2.15;;;6.40;99.90;;;;;;6275175;22;20324;-93
2022/03/18 06:28:38;;;;;;;4.53;1.85;;;6.40;99.90;;;;;;6276832;22;20015;-92
2022/03/18 06:31:06;;;;;;;7.60;1.70;;;6.40;99.90;;;;;;6277399;22;20015;-92
2022/03/18 06:33:34;;;;;;;3.50;1.67;;;6.40;99.90;;;;;;6275537;22;20069;-93
2022/03/18 06:36:01;;;;;;;3.22;1.08;;;6.40;99.90;;;;;;6275166;22;20463;-91
2022/03/18 06:38:27;;;;;;;3.28;1.20;;;6.40;99.90;;;;;;6275889;22;20028;-92
2022/03/18 06:40:56;;;;;;;2.63;1.20;;;6.40;99.90;;;;;;6250148;22;20019;-93
2022/03/18 06:43:23;;;;;;;6.88;1.90;;;6.40;99.90;;;;;;6275852;22;20016;-94
2022/03/18 06:45:50;;;;;;;2.83;1.30;;;6.40;99.90;;;;;;6250307;22;20073;-92
2022/03/18 06:48:17;;;;;;;5.95;2.33;;;6.40;99.90;;;;;;6250394;22;20134;-92
2022/03/18 06:50:44;;;;;;;2.72;1.40;;;6.40;99.90;;;;;;6275311;22;20110;-92
2022/03/18 06:53:11;;;;;;;2.50;1.38;;;6.40;99.90;;;;;;6277144;22;20020;-92
2022/03/18 06:55:38;;;;;;;5.32;1.40;;;6.40;99.90;;;;;;6276826;22;20019;-91
2022/03/18 06:58:08;;;;;;;3.17;1.67;;;6.40;99.90;;;;;;6250135;22;20027;-92
2022/03/18 07:00:38;;;;;;;8.13;2.45;;;6.40;99.90;;;;;;6275423;22;20027;-92
2022/03/18 07:03:06;;;;;;;13.57;3.05;;;6.40;99.90;;;;;;6250427;22;20050;-93
2022/03/18 07:05:34;;;;;;;9.05;2.28;;;6.60;99.90;;;;;;6277229;22;20458;-93
2022/03/18 07:08:01;;;;;;;8.95;2.47;;;6.60;99.90;;;;;;6277848;22;20024;-92
2022/03/18 07:10:28;;;;;;;8.55;2.92;;;6.70;99.90;;;;;;6277855;22;20022;-94
2022/03/18 07:12:55;;;;;;;8.93;2.08;;;6.70;99.90;;;;;;6252174;22;20077;-93
2022/03/18 07:15:22;;;;;;;9.50;2.47;;;6.80;99.90;;;;;;6277999;22;20020;-93
2022/03/18 07:17:55;;;;;;;11.18;2.20;;;7.00;99.90;;;;;;6251832;22;20024;-92
2022/03/18 07:20:23;;;;;;;11.50;2.78;;;7.00;99.90;;;;;;6251732;22;20024;-94
2022/03/18 07:23:13;;;;;;;7.22;3.17;;;7.20;99.90;;;;;;6277550;22;20046;-92
2022/03/18 07:25:43;;;;;;;13.20;2.85;;;7.10;99.90;;;;;;6251814;22;20410;-92
2022/03/18 07:28:12;;;;;;;7.65;3.55;;;7.30;99.90;;;;;;6252299;22;20012;-92
2022/03/18 07:30:41;;;;;;;13.57;3.33;;;7.30;99.90;;;;;;6278517;22;20011;-91
2022/03/18 07:33:09;;;;;;;12.68;3.72;;;7.50;99.90;;;;;;6277066;22;20020;-93
2022/03/18 07:35:37;;;;;;;5.20;2.38;;;7.60;99.90;;;;;;6277169;22;20078;-92
2022/03/18 07:38:09;;;;;;;9.80;3.42;;;7.50;99.90;;;;;;6278922;22;20019;-92
2022/03/18 07:40:37;;;;;;;16.60;4.32;;;7.50;99.90;;;;;;6226264;22;20054;-91
2022/03/18 07:43:05;;;;;;;14.07;3.75;;;7.70;99.90;;;;;;6250920;22;20020;-92
2022/03/18 07:45:34;;;;;;;12.48;6.20;;;7.80;99.90;;;;;;6278428;22;20012;-93
2022/03/18 07:48:05;;;;;;;13.05;4.35;;;7.90;99.90;;;;;;6278348;22;20022;-93
2022/03/18 07:50:33;;;;;;;10.35;4.40;;;8.00;99.90;;;;;;6227151;22;20020;-93
2022/03/18 07:53:02;;;;;;;11.65;4.85;;;8.00;99.90;;;;;;6277084;22;20091;-93
2022/03/18 07:55:31;;;;;;;13.15;4.30;;;8.00;99.90;;;;;;6277258;22;20024;-92
2022/03/18 07:57:59;;;;;;;16.30;4.60;;;8.00;99.90;;;;;;6252362;22;20023;-92
2022/03/18 08:00:26;;;;;;;16.77;4.97;;;8.20;99.90;;;;;;6276750;22;20050;-92
2022/03/18 08:02:54;;;;;;;23.00;5.57;;;8.20;99.90;;;;;;6251240;22;20069;-93
2022/03/18 08:05:22;;;;;;;14.60;5.53;;;8.30;99.90;;;;;;6277273;22;20016;-93
2022/03/18 08:07:56;;;;;;;12.48;4.78;;;8.30;99.90;;;;;;6251896;22;20427;-92
2022/03/18 08:10:23;;;;;;;9.75;4.53;;;8.30;99.90;;;;;;6278139;22;20399;-93
2022/03/18 08:12:51;;;;;;;15.98;5.43;;;8.30;99.90;;;;;;6278249;22;20087;-93
2022/03/18 08:15:21;;;;;;;21.13;6.18;;;8.30;99.90;;;;;;6251377;22;20081;-92
2022/03/18 08:17:54;;;;;;;14.98;5.93;;;8.40;99.90;;;;;;6277758;22;20081;-92
2022/03/18 08:20:21;;;;;;;13.43;6.00;;;8.40;99.90;;;;;;6278511;22;20020;-92
2022/03/18 08:22:50;;;;;;;22.58;5.85;;;8.50;99.90;;;;;;6251131;22;20023;-92
2022/03/18 08:25:18;;;;;;;23.00;6.35;;;8.40;99.90;;;;;;6276229;22;20500;-91
2022/03/18 08:27:48;;;;;;;14.82;7.20;;;8.50;99.90;;;;;;6276412;22;20022;-92
2022/03/18 08:30:15;;;;;;;13.55;5.95;;;8.60;99.90;;;;;;6277512;22;20432;-93
2022/03/18 08:32:43;;;;;;;20.02;6.63;;;8.70;99.90;;;;;;6276332;22;20420;-93
2022/03/18 08:35:10;;;;;;;15.52;7.00;;;8.70;99.90;;;;;;6276740;22;20022;-91
2022/03/18 08:37:56;;;;;;;16.67;7.25;;;8.80;99.90;;;;;;6276624;22;20031;-93
2022/03/18 08:40:29;;;;;;;18.77;7.03;;;8.90;99.90;;;;;;6276875;22;20023;-93
2022/03/18 08:42:57;;;;;;;20.27;7.47;;;9.00;99.90;;;;;;6277410;22;20431;-92
2022/03/18 08:45:25;;;;;;;18.50;6.75;;;9.00;99.90;;;;;;6251032;22;20074;-92
2022/03/18 08:47:53;;;;;;;18.33;8.25;;;9.00;99.90;;;;;;6276380;22;20066;-92
2022/03/18 08:50:21;;;;;;;18.58;6.65;;;9.10;99.90;;;;;;6277072;22;20022;-93
2022/03/18 08:52:52;;;;;;;12.57;6.15;;;9.20;99.90;;;;;;6277005;22;20015;-92
2022/03/18 08:55:21;;;;;;;15.70;6.13;;;9.20;99.90;;;;;;6276643;22;20024;-92
2022/03/18 08:57:48;;;;;;;18.88;9.35;;;9.20;99.90;;;;;;6276607;22;20028;-92
2022/03/18 09:00:17;;;;;;;20.23;7.30;;;9.30;99.90;;;;;;6250974;22;20022;-91
2022/03/18 09:02:46;;;;;;;13.48;6.40;;;9.30;99.90;;;;;;6278000;22;20043;-92
2022/03/18 09:05:14;;;;;;;29.95;7.88;;;9.30;99.90;;;;;;6278051;22;20058;-93
2022/03/18 09:07:41;;;;;;;20.90;7.05;;;9.30;99.90;;;;;;6276285;22;20019;-93
2022/03/18 09:10:10;;;;;;;23.17;7.28;;;9.20;99.90;;;;;;6277145;22;20039;-91
2022/03/18 09:12:55;;;;;;;19.67;6.43;;;9.50;99.90;;;;;;6277479;22;20062;-93
2022/03/18 09:15:23;;;;;;;16.08;5.32;;;9.50;99.90;;;;;;6252388;22;20454;-93
2022/03/18 09:17:50;;;;;;;16.00;6.22;;;9.40;99.90;;;;;;6277761;22;20019;-94
2022/03/18 09:20:18;;;;;;;15.98;6.57;;;9.40;99.90;;;;;;6276216;22;20126;-94
2022/03/18 09:22:45;;;;;;;22.15;6.75;;;9.50;99.90;;;;;;6275894;22;20533;-93
2022/03/18 09:25:12;;;;;;;16.02;6.55;;;9.70;99.90;;;;;;6251580;22;20065;-94
2022/03/18 09:27:40;;;;;;;19.20;5.38;;;9.80;99.90;;;;;;6276352;22;20047;-91
2022/03/18 09:30:12;;;;;;;24.88;6.40;;;9.90;99.90;;;;;;6250747;22;20020;-93
2022/03/18 09:32:43;;;;;;;10.05;3.88;;;9.90;99.90;;;;;;6250734;22;20019;-92
2022/03/18 09:35:27;;;;;;;17.02;4.30;;;9.60;99.90;;;;;;6250568;22;20434;-92
2022/03/18 09:37:55;;;;;;;18.70;4.32;;;9.80;99.90;;;;;;6277844;22;20027;-92
2022/03/18 09:40:22;;;;;;;18.30;3.55;;;9.90;99.90;;;;;;6277280;22;20023;-94
2022/03/18 09:43:10;;;;;;;23.23;5.70;;;9.90;99.90;;;;;;6250437;22;20110;-93
2022/03/18 09:45:39;;;;;;;11.15;3.92;;;10.00;99.90;;;;;;6275876;22;20470;-91
2022/03/18 09:48:13;;;;;;;12.30;4.40;;;10.00;99.90;;;;;;6275569;22;20030;-93
2022/03/18 09:50:42;;;;;;;23.70;4.32;;;10.00;99.90;;;;;;6275847;22;20459;-92
2022/03/18 09:53:14;;;;;;;18.38;4.82;;;10.10;99.90;;;;;;6249685;22;20016;-92
2022/03/18 09:55:42;;;;;;;20.67;5.85;;;10.00;99.90;;;;;;6275979;22;20023;-93
2022/03/18 09:58:09;;;;;;;17.75;3.97;;;10.10;99.90;;;;;;6249963;22;20030;-92
2022/03/18 10:00:36;;;;;;;13.07;4.25;;;10.10;99.90;;;;;;6275894;22;20424;-92
2022/03/18 10:03:17;;;;;;;27.75;4.65;;;10.20;99.90;;;;;;6249743;22;20023;-92
2022/03/18 10:05:59;;;;;;;26.42;3.83;;;10.00;99.90;;;;;;6250143;22;20440;-93
2022/03/18 10:08:38;;;;;;;21.15;4.30;;;9.90;99.90;;;;;;6277434;22;20020;-92
2022/03/18 10:11:19;;;;;;;12.73;4.72;;;10.10;99.90;;;;;;6228167;22;20374;-93
2022/03/18 10:14:06;;;;;;;27.02;4.78;;;10.10;99.90;;;;;;6275606;22;20439;-94
2022/03/18 10:16:39;;;;;;;22.63;4.38;;;10.10;99.90;;;;;;6276546;22;20408;-92
2022/03/18 10:19:18;;;;;;;18.88;4.20;;;10.10;99.90;;;;;;6250179;22;20024;-92
2022/03/18 10:22:01;;;;;;;18.77;3.92;;;10.20;99.90;;;;;;6250708;22;20015;-92
2022/03/18 10:24:37;;;;;;;22.92;5.18;;;10.20;99.90;;;;;;6249992;22;20355;-93
2022/03/18 10:27:20;;;;;;;13.98;4.40;;;10.30;99.90;;;;;;6277929;22;20022;-93
2022/03/18 10:29:50;;;;;;;18.40;4.55;;;10.30;99.90;;;;;;6249736;22;20073;-93
2022/03/18 10:32:19;;;;;;;19.80;3.65;;;10.20;99.90;;;;;;6224667;22;20012;-93
2022/03/18 10:37:50;;;;;;;14.48;3.83;;;10.20;99.90;;;;;;6251434;22;20030;-92
2022/03/18 10:40:31;;;;;;;23.17;3.60;;;10.30;99.90;;;;;;6276584;22;20042;-94
2022/03/18 10:43:03;;;;;;;11.05;3.15;;;10.30;99.90;;;;;;6251952;22;20026;-92
2022/03/18 10:45:30;;;;;;;16.30;3.35;;;10.40;99.90;;;;;;6251910;22;20019;-92
2022/03/18 10:48:12;;;;;;;20.33;4.22;;;10.50;99.90;;;;;;6278197;22;20500;-93
2022/03/18 10:50:40;;;;;;;21.80;4.05;;;10.50;99.90;;;;;;6252253;22;20077;-91
2022/03/18 10:53:10;;;;;;;17.88;4.90;;;10.40;99.90;;;;;;6252290;22;20015;-92
2022/03/18 10:55:39;;;;;;;13.25;3.55;;;10.50;99.90;;;;;;6277531;22;20023;-90
2022/03/18 10:58:12;;;;;;;18.05;5.18;;;10.50;99.90;;;;;;6278390;22;20040;-92
2022/03/18 11:00:43;;;;;;;17.40;3.60;;;10.50;99.90;;;;;;6277805;22;20024;-93
2022/03/18 11:03:14;;;;;;;27.05;4.50;;;10.50;99.90;;;;;;6252003;22;20413;-93
2022/03/18 11:05:52;;;;;;;18.02;3.83;;;10.60;99.90;;;;;;6277777;22;20016;-94
2022/03/18 11:08:31;;;;;;;24.20;4.18;;;10.50;99.90;;;;;;6253611;22;20102;-92
2022/03/18 11:11:14;;;;;;;15.90;4.45;;;10.60;99.90;;;;;;6252668;22;20022;-94
2022/03/18 11:13:51;;;;;;;17.92;3.67;;;10.80;99.90;;;;;;6278359;22;20012;-92
2022/03/18 11:16:28;;;;;;;21.33;3.78;;;10.70;99.90;;;;;;6278912;22;20044;-93
2022/03/18 11:18:58;;;;;;;20.40;3.97;;;10.60;99.90;;;;;;6278464;22;20026;-93
2022/03/18 11:21:35;;;;;;;19.23;3.53;;;10.60;99.90;;;;;;6227062;22;20470;-94
2022/03/18 11:24:05;;;;;;;23.50;4.07;;;10.70;99.90;;;;;;6252839;22;20037;-92
2022/03/18 11:26:34;;;;;;;19.15;3.38;;;10.70;99.90;;;;;;6277595;22;20440;-92
2022/03/18 11:29:09;;;;;;;18.25;3.90;;;10.70;99.90;;;;;;6279412;22;20061;-91
2022/03/18 11:31:40;;;;;;;15.18;5.07;;;10.90;99.90;;;;;;6252454;22;20012;-91
2022/03/18 11:34:19;;;;;;;16.70;3.97;;;10.90;99.90;;;;;;6277890;22;20519;-92
2022/03/18 11:37:04;;;;;;;11.95;3.22;;;10.90;99.90;;;;;;6277462;22;20020;-92
2022/03/18 11:39:32;;;;;;;17.02;5.20;;;10.80;99.90;;;;;;6251850;22;20066;-92
2022/03/18 11:42:09;;;;;;;17.52;3.63;;;10.80;99.90;;;;;;6277428;22;20443;-92
2022/03/18 11:44:36;;;;;;;19.20;3.67;;;10.90;99.90;;;;;;6277208;22;20461;-93
2022/03/18 11:47:28;;;;;;;30.15;3.70;;;11.00;99.90;;;;;;6251878;22;20376;-93
2022/03/18 11:50:45;;;;;;;15.30;4.20;;;11.00;99.90;;;;;;6277021;22;20395;-93
2022/03/18 11:53:14;;;;;;;15.93;4.05;;;11.10;99.90;;;;;;6207872;22;20012;-93
2022/03/18 11:55:45;;;;;;;17.75;3.33;;;11.20;99.90;;;;;;6226640;22;20024;-93
2022/03/18 11:58:28;;;;;;;8.82;2.92;;;11.00;99.90;;;;;;6277486;22;20020;-93
2022/03/18 12:00:55;;;;;;;22.25;3.17;;;11.10;99.90;;;;;;6226354;22;20027;-93
2022/03/18 12:03:28;;;;;;;18.70;3.80;;;11.20;99.90;;;;;;6252136;22;20027;-92
2022/03/18 12:05:57;;;;;;;16.30;2.88;;;11.10;99.90;;;;;;6251836;22;20047;-92
2022/03/18 12:08:55;;;;;;;19.55;3.20;;;11.20;99.90;;;;;;6254029;22;20015;-93
2022/03/18 12:11:30;;;;;;;19.98;3.33;;;11.30;99.90;;;;;;6277048;22;20018;-93
2022/03/18 12:14:06;;;;;;;13.02;2.97;;;11.40;99.90;;;;;;6277345;22;20087;-89
2022/03/18 12:16:33;;;;;;;15.85;3.45;;;11.50;99.90;;;;;;6276578;22;20024;-93
2022/03/18 12:19:17;;;;;;;18.15;3.38;;;11.50;99.90;;;;;;6277110;22;20020;-92
2022/03/18 12:21:45;;;;;;;22.88;4.25;;;11.50;99.90;;;;;;6251718;22;20020;-93
2022/03/18 12:24:13;;;;;;;14.55;2.95;;;11.60;99.90;;;;;;6278355;22;20016;-91
2022/03/18 12:26:40;;;;;;;12.70;2.33;;;11.60;99.90;;;;;;6251532;22;20026;-92
2022/03/18 12:29:09;;;;;;;12.32;2.65;;;11.70;99.90;;;;;;6277706;22;20019;-92
2022/03/18 12:31:36;;;;;;;11.95;2.50;;;11.80;99.90;;;;;;6250967;22;20024;-93
2022/03/18 12:34:07;;;;;;;11.45;2.38;;;11.80;99.90;;;;;;6251554;22;20026;-91
2022/03/18 12:36:40;;;;;;;14.32;4.05;;;11.90;99.90;;;;;;6226244;22;20443;-92
2022/03/18 12:39:13;;;;;;;;;;;11.70;99.90;;;;;;6252198;22;20023;-93
2022/03/18 12:41:44;;;;;;;10.10;2.22;;;11.70;99.90;;;;;;6251215;22;20243;-90
2022/03/18 12:44:30;;;;;;;15.95;2.85;;;11.90;99.90;;;;;;6251416;22;20020;-93
2022/03/18 12:47:05;;;;;;;12.20;2.00;;;11.70;99.90;;;;;;6251870;22;20026;-94
2022/03/18 12:49:35;;;;;;;16.98;2.55;;;11.70;99.90;;;;;;6226728;22;20015;-93
2022/03/18 12:52:11;;;;;;;14.48;1.88;;;11.90;99.90;;;;;;6227015;22;20077;-95
2022/03/18 12:55:00;;;;;;;16.35;3.28;;;11.80;99.90;;;;;;6276885;22;20016;-94
2022/03/18 12:57:28;;;;;;;14.35;2.53;;;11.70;99.90;;;;;;6230851;22;20051;-94
2022/03/18 12:59:58;;;;;;;16.25;2.97;;;11.90;99.90;;;;;;6251144;22;20027;-92
2022/03/18 13:02:45;;;;;;;15.35;2.67;;;11.90;99.90;;;;;;6251351;22;20019;-92
2022/03/18 13:05:19;;;;;;;17.95;3.75;;;11.80;99.90;;;;;;6250956;22;20020;-93
2022/03/18 13:07:49;;;;;;;14.18;2.50;;;11.80;99.90;;;;;;6275617;22;20019;-93
2022/03/18 13:10:21;;;;;;;8.82;2.28;;;11.80;99.90;;;;;;6225871;22;20071;-93
2022/03/18 13:12:48;;;;;;;14.35;2.88;;;12.00;99.90;;;;;;6225768;22;20015;-92
2022/03/18 13:15:21;;;;;;;13.25;2.30;;;12.20;99.90;;;;;;6276702;22;20016;-93
2022/03/18 13:18:07;;;;;;;12.38;2.85;;;12.20;99.90;;;;;;6250867;22;20019;-93
2022/03/18 13:20:56;;;;;;;11.80;2.25;;;12.10;99.90;;;;;;6249956;22;20069;-93
2022/03/18 13:23:24;;;;;;;;;;;11.90;99.90;;;;;;6278324;22;20023;-92
2022/03/18 13:25:54;;;;;;;17.48;2.88;;;11.80;99.90;;;;;;6250599;22;19915;-93